Time;durP1;ratioP1;P1;durP2;ratioP2;P2;SDS_P1;SDS_P2;PMS_P1;PMS_P2;Temp;Humidity;BMP_temperature;BMP_pressure;BME280_temperature;BME280_humidity;BME280_pressure;Samples;Min_cycle;Max_cycle;Signal;HPM_P1;HPM_P2
2022/07/06 04:00:23;;;;;;;8.48;5.40;;;13.00;99.90;;;;;;6044190;22;21160;-74
2022/07/06 04:02:49;;;;;;;7.00;5.63;;;13.00;99.90;;;;;;5012707;28;20050;-73
2022/07/06 04:05:15;;;;;;;6.57;5.97;;;13.10;99.90;;;;;;5013023;28;20037;-73
2022/07/06 04:07:40;;;;;;;5.90;5.30;;;13.20;99.90;;;;;;5012626;28;20027;-73
2022/07/06 04:10:07;;;;;;;5.82;5.30;;;13.30;99.90;;;;;;5012724;28;20037;-72
2022/07/06 04:12:39;;;;;;;6.00;5.30;;;13.30;99.90;;;;;;5012829;28;20415;-73
2022/07/06 04:15:05;;;;;;;6.13;5.50;;;13.30;99.90;;;;;;5014600;28;20074;-73
2022/07/06 04:20:15;;;;;;;5.75;5.25;;;13.30;99.90;;;;;;5014346;28;20124;-72
2022/07/06 04:22:40;;;;;;;7.13;5.32;;;13.30;99.90;;;;;;5014308;28;20098;-73
2022/07/06 04:25:06;;;;;;;7.30;5.43;;;13.30;99.90;;;;;;5014408;28;20065;-73
2022/07/06 04:27:32;;;;;;;6.28;5.68;;;13.30;99.90;;;;;;5013804;28;20538;-73
2022/07/06 04:29:57;;;;;;;5.28;4.72;;;13.30;99.90;;;;;;5013932;28;20063;-73
2022/07/06 04:32:23;;;;;;;6.35;5.35;;;13.40;99.90;;;;;;5013965;28;20038;-73
2022/07/06 04:34:48;;;;;;;6.00;5.43;;;13.40;99.90;;;;;;5012528;28;20050;-73
2022/07/06 04:37:14;;;;;;;9.23;5.30;;;13.40;99.90;;;;;;5013809;28;20031;-73
2022/07/06 04:39:39;;;;;;;6.63;4.90;;;13.40;99.90;;;;;;5013698;28;20415;-73
2022/07/06 04:42:05;;;;;;;9.85;5.38;;;13.40;99.90;;;;;;5013671;28;20049;-73
2022/07/06 04:44:30;;;;;;;5.55;4.65;;;13.40;99.90;;;;;;5014072;28;20042;-73
2022/07/06 04:46:56;;;;;;;5.68;4.68;;;13.50;99.90;;;;;;5013335;28;20031;-73
2022/07/06 04:49:21;;;;;;;7.03;4.63;;;13.60;99.90;;;;;;5014109;28;20070;-73
2022/07/06 04:51:47;;;;;;;5.63;4.55;;;13.70;99.90;;;;;;5009347;28;20051;-74
2022/07/06 04:54:12;;;;;;;7.80;4.35;;;13.90;99.90;;;;;;5014119;28;20042;-73
2022/07/06 04:56:38;;;;;;;6.55;4.30;;;14.10;99.90;;;;;;5016933;28;20399;-73
2022/07/06 04:59:03;;;;;;;4.75;4.15;;;14.30;99.90;;;;;;5017134;28;20058;-73
2022/07/06 05:01:29;;;;;;;4.82;3.75;;;14.50;99.90;;;;;;5016424;28;20041;-74
2022/07/06 05:03:54;;;;;;;7.80;3.95;;;14.80;99.90;;;;;;5015627;28;20519;-74
2022/07/06 05:06:20;;;;;;;6.53;4.03;;;15.00;99.90;;;;;;5015303;28;20384;-73
2022/07/06 05:08:46;;;;;;;8.07;4.05;;;15.20;99.90;;;;;;5017142;28;20062;-80
2022/07/06 05:11:11;;;;;;;8.35;4.03;;;15.40;99.90;;;;;;5017055;28;20034;-74
2022/07/06 05:13:37;;;;;;;6.97;3.80;;;15.60;99.90;;;;;;5015895;28;20092;-74
2022/07/06 05:16:03;;;;;;;4.80;3.58;;;15.80;99.90;;;;;;5015381;28;20042;-75
2022/07/06 05:18:29;;;;;;;7.35;3.97;;;15.90;99.90;;;;;;5017497;28;20035;-77
2022/07/06 05:20:55;;;;;;;5.22;3.20;;;16.10;99.90;;;;;;5016101;28;20474;-76
2022/07/06 05:23:21;;;;;;;5.63;3.40;;;16.30;99.90;;;;;;5013691;28;20046;-78
2022/07/06 05:25:46;;;;;;;6.07;3.58;;;16.40;99.90;;;;;;5012299;28;20050;-74
2022/07/06 05:28:12;;;;;;;4.97;3.60;;;16.50;99.90;;;;;;5014363;28;20030;-74
2022/07/06 05:30:37;;;;;;;5.25;3.22;;;16.60;99.90;;;;;;5010639;28;20453;-73
2022/07/06 05:33:03;;;;;;;4.82;3.45;;;16.60;99.90;;;;;;5016653;28;20583;-73
2022/07/06 05:35:29;;;;;;;4.45;3.17;;;16.70;99.90;;;;;;5016613;28;20492;-73
2022/07/06 05:37:55;;;;;;;8.73;3.47;;;16.70;99.90;;;;;;5016319;28;20459;-73
2022/07/06 05:40:20;;;;;;;5.88;3.10;;;16.60;99.90;;;;;;5016652;28;20031;-74
2022/07/06 05:42:46;;;;;;;5.55;3.55;;;16.60;99.90;;;;;;5016462;28;20092;-73
2022/07/06 05:45:11;;;;;;;9.13;3.25;;;16.60;99.90;;;;;;5016325;28;20039;-73
2022/07/06 05:50:21;;;;;;;9.95;3.75;;;16.60;99.90;;;;;;5016388;28;20038;-74
2022/07/06 05:52:59;;;;;;;9.02;3.92;;;16.70;99.90;;;;;;5016713;28;20038;-72
2022/07/06 05:55:25;;;;;;;16.05;3.83;;;16.70;99.90;;;;;;5015933;28;20042;-72
2022/07/06 05:57:53;;;;;;;8.45;3.80;;;16.90;99.90;;;;;;5016379;28;20448;-72
2022/07/06 06:00:20;;;;;;;4.40;3.38;;;17.00;99.90;;;;;;5015629;28;20088;-72
2022/07/06 06:02:46;;;;;;;7.03;3.22;;;17.00;99.90;;;;;;5016463;28;20531;-74
2022/07/06 06:05:13;;;;;;;4.85;3.00;;;17.00;99.90;;;;;;5016441;28;22585;-72
2022/07/06 06:07:38;;;;;;;10.77;3.53;;;17.00;99.90;;;;;;5015232;28;20026;-77
2022/07/06 06:10:07;;;;;;;6.40;3.40;;;17.00;99.90;;;;;;5015861;28;20450;-73
2022/07/06 06:12:33;;;;;;;4.25;3.35;;;17.10;99.90;;;;;;5016009;28;20150;-72
2022/07/06 06:14:59;;;;;;;5.25;3.00;;;17.20;99.90;;;;;;5016538;28;20108;-72
2022/07/06 06:17:24;;;;;;;4.85;3.20;;;17.30;99.90;;;;;;5014641;28;20746;-72
2022/07/06 06:19:50;;;;;;;4.07;3.00;;;17.20;99.90;;;;;;5015988;28;20057;-72
2022/07/06 06:22:15;;;;;;;8.13;3.10;;;17.20;99.90;;;;;;5015899;28;20134;-72
2022/07/06 06:24:41;;;;;;;11.25;3.58;;;17.20;99.90;;;;;;5015951;28;20048;-72
2022/07/06 06:27:06;;;;;;;6.97;3.22;;;17.20;99.90;;;;;;5015467;28;20105;-72
2022/07/06 06:29:32;;;;;;;5.72;3.10;;;17.20;99.90;;;;;;5016123;28;20093;-73
2022/07/06 06:31:58;;;;;;;15.35;3.80;;;17.40;99.90;;;;;;5015379;28;20041;-72
2022/07/06 06:34:23;;;;;;;23.90;4.43;;;17.40;99.90;;;;;;5015568;28;20037;-72
2022/07/06 06:36:49;;;;;;;4.20;2.90;;;17.60;99.90;;;;;;5015832;28;20026;-72
2022/07/06 06:39:15;;;;;;;6.35;2.75;;;17.70;99.90;;;;;;5015907;28;20468;-72
2022/07/06 06:41:40;;;;;;;5.95;3.10;;;17.90;99.90;;;;;;5015765;28;20027;-72
2022/07/06 06:44:06;;;;;;;3.10;2.80;;;18.00;99.90;;;;;;5015486;28;20121;-72
2022/07/06 06:46:31;;;;;;;5.15;3.40;;;17.90;99.90;;;;;;5013911;28;20389;-72
2022/07/06 06:48:57;;;;;;;3.70;2.72;;;17.90;99.90;;;;;;5015657;28;20458;-72
2022/07/06 06:51:22;;;;;;;5.55;3.28;;;17.90;99.90;;;;;;5015103;28;20031;-72
2022/07/06 06:53:48;;;;;;;6.93;2.80;;;18.00;99.90;;;;;;5015678;28;20038;-72
2022/07/06 06:56:13;;;;;;;4.00;3.00;;;18.10;99.90;;;;;;5015249;28;20101;-72
2022/07/06 06:58:39;;;;;;;6.25;3.00;;;18.10;99.90;;;;;;5015688;28;20038;-74
2022/07/06 07:01:04;;;;;;;9.48;3.92;;;18.20;99.90;;;;;;5014902;28;20628;-73
2022/07/06 07:03:31;;;;;;;7.45;3.25;;;18.30;99.80;;;;;;5014019;28;20452;-72
2022/07/06 07:05:57;;;;;;;7.63;3.75;;;18.30;99.90;;;;;;5014794;28;20034;-72
2022/07/06 07:08:22;;;;;;;6.03;3.13;;;18.40;99.90;;;;;;5015209;28;20042;-73
2022/07/06 07:10:48;;;;;;;5.07;3.00;;;18.50;99.90;;;;;;5015101;28;20058;-72
2022/07/06 07:13:13;;;;;;;5.35;3.22;;;18.60;99.90;;;;;;5014608;28;20519;-72
2022/07/06 07:15:39;;;;;;;7.10;3.65;;;18.80;98.90;;;;;;5014992;28;20042;-73
2022/07/06 07:18:04;;;;;;;5.22;3.60;;;19.00;99.20;;;;;;5014140;28;20087;-72
2022/07/06 07:20:31;;;;;;;9.90;3.25;;;19.00;99.10;;;;;;5014724;28;20039;-73
2022/07/06 07:22:57;;;;;;;6.60;2.97;;;19.10;98.60;;;;;;5014829;28;20026;-73
2022/07/06 07:25:23;;;;;;;4.18;3.30;;;19.30;99.00;;;;;;5015069;28;20092;-72
2022/07/06 07:27:48;;;;;;;7.43;3.20;;;19.60;97.40;;;;;;5014661;28;20034;-73
2022/07/06 07:30:14;;;;;;;5.10;3.13;;;19.90;97.10;;;;;;5009982;28;20034;-73
2022/07/06 07:32:42;;;;;;;5.90;2.88;;;20.10;96.40;;;;;;5013908;28;20026;-73
2022/07/06 07:35:08;;;;;;;6.22;3.10;;;20.20;95.80;;;;;;5015277;28;20137;-73
2022/07/06 07:37:34;;;;;;;6.60;3.08;;;20.40;95.50;;;;;;5009343;28;20049;-73
2022/07/06 07:40:00;;;;;;;4.95;3.00;;;20.60;94.60;;;;;;5018247;28;20038;-72
2022/07/06 07:42:25;;;;;;;4.93;2.97;;;20.70;94.30;;;;;;5025698;28;20040;-72
2022/07/06 07:44:51;;;;;;;6.80;2.90;;;20.80;94.30;;;;;;5014107;28;20121;-73
2022/07/06 07:47:17;;;;;;;4.72;3.67;;;21.00;93.80;;;;;;5015270;28;20973;-73
2022/07/06 07:49:42;;;;;;;7.35;3.22;;;21.00;94.10;;;;;;5019308;28;20049;-73
2022/07/06 07:52:08;;;;;;;5.05;3.25;;;21.10;93.80;;;;;;5019025;28;20109;-72
2022/07/06 07:54:33;;;;;;;3.75;2.80;;;21.30;94.50;;;;;;5034452;28;20034;-73
2022/07/06 07:56:59;;;;;;;8.63;3.33;;;21.50;93.40;;;;;;5012806;28;20049;-73
2022/07/06 07:59:25;;;;;;;4.75;3.38;;;21.80;92.20;;;;;;5011851;28;20101;-73
2022/07/06 08:01:51;;;;;;;5.30;2.95;;;21.70;91.90;;;;;;5013855;28;20586;-72
2022/07/06 08:04:17;;;;;;;5.10;3.60;;;21.50;93.70;;;;;;5017390;28;20534;-73
2022/07/06 08:06:42;;;;;;;4.25;3.25;;;21.40;92.70;;;;;;5012970;28;20043;-73
2022/07/06 08:09:08;;;;;;;4.30;3.20;;;21.70;91.40;;;;;;5012845;28;20065;-73
2022/07/06 08:11:34;;;;;;;4.32;3.00;;;21.80;91.50;;;;;;5011027;28;20065;-73
2022/07/06 08:14:00;;;;;;;4.65;2.63;;;21.90;92.20;;;;;;5014459;28;20074;-73
2022/07/06 08:16:26;;;;;;;6.82;3.55;;;22.30;91.30;;;;;;5007462;28;20098;-73
2022/07/06 08:18:52;;;;;;;7.82;3.00;;;22.20;90.70;;;;;;5007525;28;20093;-75
2022/07/06 08:21:17;;;;;;;13.43;3.53;;;22.40;90.50;;;;;;5011331;28;20077;-73
2022/07/06 08:23:43;;;;;;;6.22;3.15;;;22.40;90.40;;;;;;5010480;28;20082;-73
2022/07/06 08:26:09;;;;;;;6.93;3.38;;;22.50;90.60;;;;;;5028435;28;20488;-73
2022/07/06 08:28:34;;;;;;;6.65;3.28;;;22.60;89.70;;;;;;5028842;28;20567;-74
2022/07/06 08:31:00;;;;;;;4.53;2.95;;;22.50;90.00;;;;;;5016405;28;20038;-74
2022/07/06 08:33:25;;;;;;;8.35;3.17;;;22.50;89.60;;;;;;5016547;28;20452;-73
2022/07/06 08:35:51;;;;;;;6.53;3.42;;;22.60;91.20;;;;;;5016969;28;20479;-72
2022/07/06 08:38:16;;;;;;;3.97;3.30;;;22.50;88.70;;;;;;5016907;28;20097;-72
2022/07/06 08:40:45;;;;;;;6.90;3.65;;;22.30;90.00;;;;;;5015452;28;20038;-74
2022/07/06 08:43:14;;;;;;;5.72;3.63;;;22.20;89.60;;;;;;5016750;28;20058;-78
2022/07/06 08:45:40;;;;;;;5.55;3.00;;;22.40;88.60;;;;;;5018623;28;20471;-77
2022/07/06 08:48:07;;;;;;;6.28;2.92;;;22.50;90.20;;;;;;5016569;28;20039;-78
2022/07/06 08:50:34;;;;;;;8.05;2.50;;;22.80;86.60;;;;;;5017166;28;20038;-76
2022/07/06 08:53:00;;;;;;;3.85;2.80;;;22.90;88.10;;;;;;5032479;28;20145;-75
2022/07/06 08:55:29;;;;;;;4.43;2.60;;;23.10;84.60;;;;;;5016768;28;20043;-75
2022/07/06 08:57:56;;;;;;;4.18;2.90;;;23.10;87.60;;;;;;5008313;28;20100;-74
2022/07/06 09:00:22;;;;;;;4.82;3.08;;;23.20;86.60;;;;;;5017502;28;20065;-72
2022/07/06 09:02:50;;;;;;;4.18;2.97;;;23.00;85.10;;;;;;5023777;28;20046;-72
2022/07/06 09:05:17;;;;;;;4.78;2.60;;;23.10;86.60;;;;;;5019413;28;20045;-78
2022/07/06 09:07:49;;;;;;;5.20;3.22;;;23.30;85.20;;;;;;5033425;28;20036;-73
2022/07/06 09:10:21;;;;;;;7.15;3.03;;;23.40;85.80;;;;;;5008652;28;20581;-73
2022/07/06 09:12:47;;;;;;;5.22;2.83;;;23.80;84.90;;;;;;5037109;28;20499;-73
2022/07/06 09:15:13;;;;;;;4.93;2.55;;;23.80;84.90;;;;;;5023046;28;20062;-72
2022/07/06 09:17:40;;;;;;;3.92;3.05;;;23.70;82.70;;;;;;5006824;28;20532;-74
2022/07/06 09:20:10;;;;;;;4.57;2.80;;;23.80;83.90;;;;;;5012232;28;20048;-75
2022/07/06 09:22:37;;;;;;;4.60;2.80;;;23.90;82.80;;;;;;5021754;28;20031;-74
2022/07/06 09:25:12;;;;;;;6.50;2.80;;;23.80;83.00;;;;;;5016642;28;20050;-74
2022/07/06 09:27:45;;;;;;;5.68;2.60;;;24.00;82.20;;;;;;5015323;28;20042;-72
2022/07/06 09:30:12;;;;;;;5.40;2.33;;;24.50;83.90;;;;;;5014874;28;20027;-71
2022/07/06 09:32:40;;;;;;;7.95;2.65;;;24.60;80.20;;;;;;5014015;28;20082;-71
2022/07/06 09:35:06;;;;;;;8.77;2.70;;;25.10;78.10;;;;;;5020600;28;20041;-71
2022/07/06 09:37:31;;;;;;;4.22;2.60;;;25.30;77.70;;;;;;5015799;28;20061;-72
2022/07/06 09:39:57;;;;;;;5.07;2.65;;;25.10;77.00;;;;;;5015544;28;20073;-71
2022/07/06 09:42:26;;;;;;;3.22;2.42;;;24.70;79.40;;;;;;5021630;28;20054;-73
2022/07/06 09:44:53;;;;;;;3.30;2.10;;;24.50;77.80;;;;;;5019420;28;20038;-71
2022/07/06 09:47:19;;;;;;;4.03;2.38;;;24.60;77.40;;;;;;5022447;28;20579;-73
2022/07/06 09:49:47;;;;;;;4.57;2.70;;;24.90;76.30;;;;;;5016107;28;20038;-72
2022/07/06 09:52:13;;;;;;;5.03;2.63;;;24.80;75.50;;;;;;5015844;28;20484;-72
2022/07/06 09:54:40;;;;;;;4.85;2.60;;;24.70;77.10;;;;;;5016363;28;20075;-71
2022/07/06 09:57:06;;;;;;;5.20;2.60;;;24.80;79.80;;;;;;5015670;28;20126;-71
2022/07/06 09:59:34;;;;;;;3.80;2.30;;;24.70;77.50;;;;;;5016175;28;20806;-72
2022/07/06 10:02:04;;;;;;;3.83;2.33;;;25.20;77.10;;;;;;5047338;28;20038;-77
2022/07/06 10:04:30;;;;;;;5.93;2.28;;;24.90;79.10;;;;;;5001571;28;20073;-76
2022/07/06 10:06:58;;;;;;;14.10;3.00;;;24.20;80.50;;;;;;5035668;28;20547;-80
2022/07/06 10:09:26;;;;;;;7.20;2.60;;;23.80;81.50;;;;;;5039362;28;20081;-75
2022/07/06 10:11:54;;;;;;;10.32;2.75;;;24.00;80.00;;;;;;5036525;28;20092;-73
2022/07/06 10:14:31;;;;;;;12.73;3.20;;;24.20;79.90;;;;;;5016285;28;20085;-76
2022/07/06 10:16:59;;;;;;;5.00;2.42;;;24.20;78.60;;;;;;5028061;23;20054;-75
2022/07/06 10:19:25;;;;;;;8.25;2.53;;;24.30;78.50;;;;;;5008617;28;20031;-76
2022/07/06 10:21:51;;;;;;;4.03;2.45;;;24.50;78.80;;;;;;5013867;28;20026;-76
2022/07/06 10:24:19;;;;;;;4.40;2.50;;;24.90;76.30;;;;;;5015304;28;20045;-76
2022/07/06 10:26:46;;;;;;;5.53;2.45;;;25.00;76.00;;;;;;4992994;28;20035;-76
2022/07/06 10:29:11;;;;;;;3.63;2.30;;;24.50;76.30;;;;;;4986269;28;20045;-76
2022/07/06 10:31:42;;;;;;;2.95;2.33;;;24.80;78.20;;;;;;4991791;28;20034;-76
2022/07/06 10:34:11;;;;;;;21.70;3.78;;;25.70;76.00;;;;;;4994624;28;20500;-76
2022/07/06 10:36:41;;;;;;;3.83;2.40;;;25.90;73.80;;;;;;5000264;28;20069;-76
2022/07/06 10:41:52;;;;;;;2.47;2.17;;;25.30;75.70;;;;;;5007270;28;20043;-76
2022/07/06 10:44:21;;;;;;;8.48;2.53;;;25.60;79.50;;;;;;4995948;28;20047;-76
2022/07/06 10:46:54;;;;;;;8.30;2.53;;;25.30;75.80;;;;;;4995070;28;20064;-75
2022/07/06 10:49:21;;;;;;;6.13;2.28;;;24.70;76.40;;;;;;5001561;28;20061;-76
2022/07/06 10:51:49;;;;;;;4.90;2.30;;;24.70;77.80;;;;;;5006883;28;20039;-76
2022/07/06 10:54:16;;;;;;;4.20;2.13;;;24.90;80.20;;;;;;5013800;28;20042;-76
2022/07/06 10:56:51;;;;;;;10.15;2.30;;;25.60;75.80;;;;;;5009906;28;20098;-76
2022/07/06 10:59:21;;;;;;;3.33;2.00;;;26.70;72.50;;;;;;5002218;28;20042;-76
2022/07/06 11:02:13;;;;;;;5.30;2.67;;;26.70;71.50;;;;;;4998177;28;20026;-81
2022/07/06 11:04:42;;;;;;;10.60;2.75;;;26.50;70.80;;;;;;4991246;28;20038;-79
2022/07/06 11:07:15;;;;;;;2.75;2.00;;;25.60;72.30;;;;;;5001353;28;20057;-77
2022/07/06 11:09:47;;;;;;;3.13;2.03;;;26.20;70.80;;;;;;4998316;28;20477;-81
2022/07/06 11:12:20;;;;;;;5.32;2.17;;;26.40;71.00;;;;;;5001268;28;20039;-78
2022/07/06 11:14:47;;;;;;;4.07;1.95;;;26.50;68.40;;;;;;5000726;28;20034;-79
2022/07/06 11:17:13;;;;;;;4.15;2.35;;;26.60;70.20;;;;;;5003201;28;20093;-77
2022/07/06 11:19:48;;;;;;;5.07;2.30;;;26.70;68.20;;;;;;5004625;28;20090;-77
2022/07/06 11:22:15;;;;;;;5.03;2.08;;;27.10;67.80;;;;;;5009888;28;20034;-77
2022/07/06 11:24:41;;;;;;;5.22;2.00;;;27.50;67.20;;;;;;4999222;28;20050;-77
2022/07/06 11:27:08;;;;;;;3.28;2.00;;;28.00;66.70;;;;;;4998797;28;20030;-77
2022/07/06 11:29:36;;;;;;;3.60;1.90;;;27.90;65.40;;;;;;4996585;28;20467;-77
2022/07/06 11:32:03;;;;;;;8.27;2.20;;;27.80;65.30;;;;;;4998464;28;20057;-77
2022/07/06 11:34:35;;;;;;;3.22;2.00;;;28.10;65.60;;;;;;5001869;28;20030;-77
2022/07/06 11:37:12;;;;;;;2.92;2.08;;;27.30;65.60;;;;;;5012427;28;20088;-77
2022/07/06 11:39:40;;;;;;;6.50;2.10;;;26.50;67.60;;;;;;5006740;28;20035;-76
2022/07/06 11:42:07;;;;;;;7.43;2.25;;;26.20;67.50;;;;;;5005206;28;20773;-77
2022/07/06 11:44:34;;;;;;;5.35;2.20;;;25.60;67.80;;;;;;5012119;28;20070;-77
2022/07/06 11:47:03;;;;;;;4.00;2.03;;;26.40;68.50;;;;;;5000710;28;20531;-77
2022/07/06 11:49:34;;;;;;;6.85;2.40;;;26.50;65.40;;;;;;4994899;28;20531;-77
2022/07/06 11:52:00;;;;;;;4.35;2.22;;;26.00;66.50;;;;;;4995123;28;20037;-77
2022/07/06 11:54:26;;;;;;;7.28;2.20;;;25.90;66.80;;;;;;4994292;28;20061;-78
2022/07/06 11:56:54;;;;;;;4.68;2.72;;;26.40;67.00;;;;;;4993040;28;20046;-77
2022/07/06 11:59:31;;;;;;;7.20;2.33;;;26.50;64.90;;;;;;4989508;28;20035;-77
2022/07/06 12:02:08;;;;;;;4.57;2.47;;;26.70;65.30;;;;;;4988725;28;20065;-79
2022/07/06 12:04:35;;;;;;;7.80;2.10;;;26.70;66.60;;;;;;4987356;28;22452;-78
2022/07/06 12:07:11;;;;;;;3.83;2.42;;;26.90;66.00;;;;;;4988001;28;20520;-77
2022/07/06 12:09:38;;;;;;;5.03;2.50;;;26.60;67.20;;;;;;4988334;28;20081;-77
2022/07/06 12:12:05;;;;;;;5.82;3.30;;;26.50;64.20;;;;;;5005263;28;20034;-77
2022/07/06 12:14:32;;;;;;;12.57;3.65;;;25.70;67.40;;;;;;4989582;28;20047;-77
2022/07/06 12:17:04;;;;;;;12.63;4.10;;;25.70;67.10;;;;;;4996053;28;20046;-76
2022/07/06 12:19:29;;;;;;;10.95;3.20;;;25.80;67.10;;;;;;5010196;28;20034;-77
2022/07/06 12:21:56;;;;;;;4.10;3.05;;;25.70;68.70;;;;;;5006844;28;20042;-81
2022/07/06 12:24:28;;;;;;;10.73;3.47;;;25.50;68.30;;;;;;4991157;28;20164;-81
2022/07/06 12:26:55;;;;;;;8.90;3.10;;;25.80;69.30;;;;;;5003717;28;20130;-77
2022/07/06 12:29:22;;;;;;;7.28;2.38;;;26.00;69.90;;;;;;5008236;28;20043;-76
2022/07/06 12:31:47;;;;;;;7.10;2.88;;;26.40;67.30;;;;;;5000195;28;20373;-76
2022/07/06 12:34:19;;;;;;;8.05;3.20;;;26.20;66.70;;;;;;4994156;28;20045;-76
2022/07/06 12:36:46;;;;;;;5.53;2.60;;;26.50;68.10;;;;;;4993835;28;20047;-77
2022/07/06 12:39:13;;;;;;;8.98;2.30;;;26.50;63.50;;;;;;4993881;28;20035;-77
2022/07/06 12:41:45;;;;;;;6.28;2.72;;;26.80;65.70;;;;;;4990220;28;20035;-76
2022/07/06 12:44:11;;;;;;;5.18;2.38;;;26.40;64.00;;;;;;4986300;28;20039;-77
2022/07/06 12:46:41;;;;;;;6.95;2.60;;;26.90;65.60;;;;;;4993186;28;20039;-77
2022/07/06 12:49:17;;;;;;;3.42;2.30;;;27.30;65.50;;;;;;4992268;28;20039;-76
2022/07/06 12:52:12;;;;;;;4.65;2.30;;;27.40;61.00;;;;;;4993234;28;20035;-77
2022/07/06 12:54:47;;;;;;;6.57;2.90;;;26.80;61.70;;;;;;5002627;28;20093;-76
2022/07/06 12:57:23;;;;;;;5.63;2.58;;;26.30;63.00;;;;;;5013636;28;20519;-78
2022/07/06 12:59:52;;;;;;;7.13;2.20;;;26.40;67.80;;;;;;4991798;28;20460;-78
2022/07/06 13:02:31;;;;;;;7.50;2.67;;;26.30;63.70;;;;;;4994550;28;20560;-86
2022/07/06 13:05:03;;;;;;;15.93;3.35;;;26.40;62.70;;;;;;4991903;28;20046;-77
2022/07/06 13:07:35;;;;;;;4.07;1.95;;;26.50;62.50;;;;;;4996040;28;20532;-82
2022/07/06 13:10:02;;;;;;;9.10;2.38;;;27.00;61.90;;;;;;4998564;28;20506;-80
2022/07/06 13:12:28;;;;;;;8.35;2.22;;;27.20;59.60;;;;;;4995555;28;20508;-81
2022/07/06 13:14:53;;;;;;;4.63;2.08;;;26.80;60.00;;;;;;5013640;28;20105;-81
2022/07/06 13:17:19;;;;;;;4.65;2.00;;;26.80;60.00;;;;;;5011700;28;20472;-84
2022/07/06 13:19:45;;;;;;;8.27;2.20;;;26.90;58.70;;;;;;5019423;28;20038;-82
2022/07/06 13:22:10;;;;;;;6.90;2.13;;;27.20;59.80;;;;;;5013046;28;20035;-83
2022/07/06 13:24:36;;;;;;;5.57;2.10;;;27.90;58.70;;;;;;4989740;28;20039;-83
2022/07/06 13:27:03;;;;;;;4.28;2.00;;;28.70;57.40;;;;;;4978688;28;20036;-76
2022/07/06 13:29:28;;;;;;;2.28;1.70;;;28.90;54.90;;;;;;4980406;28;20560;-74
2022/07/06 13:31:54;;;;;;;4.60;1.77;;;29.10;53.20;;;;;;4997216;28;20038;-76
2022/07/06 13:34:20;;;;;;;3.92;1.88;;;29.50;54.60;;;;;;4996200;28;20086;-75
2022/07/06 13:36:46;;;;;;;5.63;1.90;;;29.60;53.40;;;;;;4995850;28;20031;-77
2022/07/06 13:39:11;;;;;;;4.03;1.58;;;29.40;53.40;;;;;;5002796;28;20101;-75
2022/07/06 13:41:37;;;;;;;5.13;1.38;;;30.20;52.20;;;;;;4998339;28;20494;-79
2022/07/06 13:44:03;;;;;;;4.28;1.48;;;31.10;52.50;;;;;;4996034;28;20089;-75
2022/07/06 13:46:29;;;;;;;2.75;1.52;;;31.10;53.00;;;;;;5005674;28;20102;-75
2022/07/06 13:48:57;;;;;;;4.20;1.42;;;31.00;48.80;;;;;;4995821;28;20041;-76
2022/07/06 13:51:23;;;;;;;1.90;1.50;;;31.30;49.70;;;;;;4996999;28;20175;-77
2022/07/06 13:53:48;;;;;;;4.95;2.10;;;32.50;47.60;;;;;;4996707;28;20042;-76
2022/07/06 13:56:14;;;;;;;5.50;1.60;;;32.00;46.80;;;;;;4994478;28;20527;-76
2022/07/06 13:58:39;;;;;;;3.10;1.50;;;31.30;48.40;;;;;;4994754;28;20039;-76
2022/07/06 14:01:05;;;;;;;4.43;1.52;;;32.00;48.00;;;;;;4996730;28;20031;-76
2022/07/06 14:03:31;;;;;;;5.07;1.63;;;31.70;45.90;;;;;;5012569;28;20043;-76
2022/07/06 14:06:01;;;;;;;3.53;1.67;;;31.50;48.20;;;;;;4995665;28;20050;-77
2022/07/06 14:08:28;;;;;;;3.80;1.40;;;31.80;46.30;;;;;;4994685;28;20041;-76
2022/07/06 14:10:54;;;;;;;4.57;1.50;;;31.80;46.40;;;;;;4996634;28;20026;-76
2022/07/06 14:13:21;;;;;;;2.63;1.27;;;32.70;45.30;;;;;;4996443;28;20093;-76
2022/07/06 14:15:47;;;;;;;3.72;1.63;;;33.20;44.70;;;;;;4996104;28;20062;-77
2022/07/06 14:18:13;;;;;;;4.80;1.55;;;33.20;44.80;;;;;;4996014;28;20122;-75
2022/07/06 14:20:38;;;;;;;3.35;1.50;;;33.50;42.60;;;;;;4995107;28;20043;-75
2022/07/06 14:23:04;;;;;;;2.97;1.27;;;33.60;45.30;;;;;;4994966;28;20035;-73
2022/07/06 14:25:29;;;;;;;3.45;1.50;;;33.40;44.00;;;;;;4994852;28;20560;-73
2022/07/06 14:27:56;;;;;;;3.65;1.38;;;33.20;45.10;;;;;;4995823;28;20137;-74
2022/07/06 14:30:21;;;;;;;2.97;1.40;;;33.00;43.20;;;;;;4996194;28;20035;-74
2022/07/06 14:32:47;;;;;;;2.95;1.20;;;33.20;44.40;;;;;;4996317;28;20065;-74
2022/07/06 14:35:13;;;;;;;1.65;1.20;;;33.50;42.30;;;;;;4995545;28;20042;-74
2022/07/06 14:37:38;;;;;;;3.35;1.40;;;33.50;45.30;;;;;;4995699;28;20030;-74
2022/07/06 14:40:04;;;;;;;3.60;1.42;;;33.70;41.20;;;;;;4996484;28;20030;-77
2022/07/06 14:42:30;;;;;;;4.80;1.80;;;34.30;41.60;;;;;;4995795;28;20023;-74
2022/07/06 14:44:55;;;;;;;4.43;1.40;;;32.20;42.70;;;;;;4995259;28;20051;-74
2022/07/06 14:47:21;;;;;;;2.65;1.60;;;32.10;45.30;;;;;;4995421;28;20049;-74
2022/07/06 14:49:47;;;;;;;6.78;1.52;;;31.50;45.20;;;;;;4996182;28;20058;-75
2022/07/06 14:52:12;;;;;;;5.00;1.40;;;32.50;45.20;;;;;;4994593;28;20040;-75
2022/07/06 14:54:38;;;;;;;3.47;1.23;;;33.80;41.00;;;;;;4987354;28;20548;-75
2022/07/06 14:57:04;;;;;;;3.63;1.38;;;34.70;39.70;;;;;;4995149;28;20034;-74
2022/07/06 14:59:30;;;;;;;3.25;1.30;;;34.50;40.20;;;;;;4997205;28;20071;-78
2022/07/06 15:01:56;;;;;;;2.83;1.48;;;35.00;38.30;;;;;;4996739;28;20035;-76
2022/07/06 15:04:22;;;;;;;6.82;1.52;;;35.00;39.70;;;;;;4997198;28;20051;-79
2022/07/06 15:06:48;;;;;;;4.53;1.48;;;34.80;38.50;;;;;;4991466;28;20501;-79
2022/07/06 15:09:14;;;;;;;3.97;1.60;;;33.60;39.90;;;;;;4996914;28;20471;-79
2022/07/06 15:11:39;;;;;;;3.75;1.48;;;33.50;40.80;;;;;;4994579;28;20061;-76
2022/07/06 15:14:05;;;;;;;3.28;1.40;;;34.30;39.60;;;;;;4995123;28;20516;-76
2022/07/06 15:16:31;;;;;;;3.58;1.55;;;35.50;38.10;;;;;;4988176;28;20043;-75
2022/07/06 15:18:56;;;;;;;2.45;1.70;;;36.80;38.10;;;;;;4994787;28;20035;-75
2022/07/06 15:21:22;;;;;;;5.47;1.95;;;36.70;36.30;;;;;;4996037;28;20065;-78
2022/07/06 15:23:47;;;;;;;3.83;1.70;;;36.00;39.90;;;;;;4995223;28;20053;-77
2022/07/06 15:26:13;;;;;;;5.45;1.92;;;35.40;38.00;;;;;;4995073;28;20481;-76
2022/07/06 15:28:38;;;;;;;3.75;2.10;;;33.90;38.20;;;;;;4994908;28;20113;-76
2022/07/06 15:31:04;;;;;;;7.47;1.88;;;34.00;38.10;;;;;;4994509;28;20113;-75
2022/07/06 15:33:30;;;;;;;2.05;1.85;;;33.20;42.20;;;;;;5002655;28;20050;-78
2022/07/06 15:35:55;;;;;;;4.43;2.10;;;33.40;40.80;;;;;;4994668;28;20038;-74
2022/07/06 15:38:21;;;;;;;5.22;2.00;;;33.80;39.40;;;;;;4994934;28;20500;-75
2022/07/06 15:40:57;;;;;;;3.00;2.08;;;33.90;38.50;;;;;;4995161;28;20113;-75
2022/07/06 15:43:23;;;;;;;3.65;2.20;;;33.00;39.70;;;;;;5004563;28;20515;-75
2022/07/06 15:45:55;;;;;;;4.03;2.03;;;32.40;38.80;;;;;;5013747;28;20041;-75
2022/07/06 15:48:20;;;;;;;5.43;2.10;;;32.40;39.70;;;;;;5014338;28;20034;-75
2022/07/06 15:50:46;;;;;;;5.75;3.45;;;31.80;40.40;;;;;;5013487;28;20815;-75
2022/07/06 15:53:11;;;;;;;2.78;1.98;;;30.90;43.30;;;;;;5010541;28;20078;-73
2022/07/06 15:55:37;;;;;;;3.20;1.90;;;29.70;42.40;;;;;;5012631;28;20046;-74
2022/07/06 15:58:03;;;;;;;8.20;4.35;;;28.90;43.90;;;;;;5013778;28;20036;-74
2022/07/06 16:00:28;;;;;;;3.47;2.47;;;28.20;45.60;;;;;;5014706;28;20476;-75
2022/07/06 16:02:54;;;;;;;3.70;2.10;;;27.90;48.00;;;;;;5008464;28;20042;-77
2022/07/06 16:05:24;;;;;;;5.57;1.90;;;27.80;46.30;;;;;;5011421;28;20077;-81
2022/07/06 16:07:49;;;;;;;2.35;2.10;;;27.30;48.30;;;;;;5003496;28;20030;-74
2022/07/06 16:10:15;;;;;;;5.85;2.10;;;26.70;49.60;;;;;;5006452;28;20038;-75
2022/07/06 16:12:41;;;;;;;2.00;1.77;;;26.60;50.00;;;;;;5008452;28;20062;-74
2022/07/06 16:15:08;;;;;;;4.95;2.00;;;26.60;50.50;;;;;;4994732;28;20126;-76
2022/07/06 16:17:34;;;;;;;5.95;2.20;;;26.40;49.30;;;;;;5034120;23;20133;-71
2022/07/06 16:19:59;;;;;;;5.22;2.20;;;26.20;49.80;;;;;;5018951;28;20038;-73
2022/07/06 16:22:25;;;;;;;2.97;2.00;;;25.90;49.30;;;;;;5027233;28;20037;-71
2022/07/06 16:24:51;;;;;;;4.85;2.17;;;25.70;50.00;;;;;;5034359;28;20148;-73
2022/07/06 16:27:17;;;;;;;3.88;2.28;;;25.60;50.50;;;;;;5033855;28;20404;-73
2022/07/06 16:29:43;;;;;;;4.43;2.15;;;25.30;51.20;;;;;;5034444;28;20487;-74
2022/07/06 16:32:08;;;;;;;4.68;2.10;;;25.00;51.20;;;;;;5024809;28;20097;-73
2022/07/06 16:34:34;;;;;;;2.78;1.90;;;24.90;51.50;;;;;;5012277;28;20085;-75
2022/07/06 16:37:00;;;;;;;4.35;2.40;;;24.70;52.60;;;;;;5013490;28;20061;-72
2022/07/06 16:39:25;;;;;;;3.53;1.90;;;24.70;52.30;;;;;;5013852;28;20500;-73
2022/07/06 16:41:51;;;;;;;5.47;2.38;;;24.50;52.80;;;;;;5008082;28;20039;-73
2022/07/06 16:44:17;;;;;;;2.53;2.10;;;24.30;52.90;;;;;;4994451;28;20069;-74
2022/07/06 16:46:42;;;;;;;8.57;2.63;;;24.10;53.30;;;;;;5026652;28;20034;-71
2022/07/06 16:49:08;;;;;;;4.95;2.20;;;23.80;54.20;;;;;;5033611;28;20154;-76
2022/07/06 16:51:34;;;;;;;4.65;2.33;;;23.80;53.50;;;;;;5032341;28;20038;-74